航空気象通報

ウインドサーファーのための航空気象通報による風予報です。

10/11-10/13の航空気象通報

2016年10月12日 00時12分14秒 | TAF

羽田空港
TAF RJTT 111105Z 1112/1218 36008KT 9999 FEW025
BECMG 1200/1203 10006KT
BECMG 1206/1209 20010KT
BECMG 1209/1212 02014KT
日本時間11日21時-12日09時:360度から8ノットの風
09-12時:風が変化
12-15時:100度から6ノットの風
15-18時:風が変化
18時:200度から10ノットの風
18-21時:風が変化
21時-13日03時:020度から14ノットの風

静岡空港
TAF RJNS 111105Z 1112/1218 34004KT 9999 FEW020 BKN030
BECMG 1200/1203 18006KT
BECMG 1206/1209 34006KT
日本時間11日21時-12日09時:340度から4ノットの風
09-12時:風が変化
12-15時:180度から6ノットの風
15-18時:風が変化
18時-13日03時:340度から6ノットの風

福岡空港
TAF RJFF 111107Z 1112/1218 04005KT 9999 FEW030
BECMG 1112/1114 14003KT
BECMG 1122/1124 03006KT
BECMG 1212/1215 14003KT
日本時間11日21時:040度から5ノットの風
21-23時:風が変化
23時-12日07時:140度から3ノットの風
07-09時:風が変化
09-21時:030度から6ノットの風
21-24時:風が変化
13日00-03時:140度から3ノットの風

那覇空港
TAF ROAH 111106Z 1112/1218 01010KT 9999 FEW010 SCT025
TEMPO 1203/1206 4000 SHRA
日本時間11日21時-13日03時:010度から10ノットの風

但し、12日12-15時の間:ときどき

石垣空港
TAF ROIG 111109Z 1112/1218 05010KT 9999 FEW015 SCT025
日本時間11日21時-13日03時:050度から10ノットの風

マウイのカフルイ空港
PHOG 111430Z 1115/1212 05009G14KT P6SM VCSH SCT025 BKN050
FM112000 05019G28KT P6SM FEW035 SCT050
FM120500 05010G15KT P6SM FEW030 SCT050 AMD LTD TO VIS AND WIND TIL 111600
ハワイ時間11日02-10時:050度から9ノット、突風14ノット

10-19時:050度から19ノット、突風28ノット
19時-12日02時:050度から10ノット、突風15ノット

サイパン空港
TAF PGSN 111120Z 1112/1212 09007KT P6SM VCSH SCT020
マリアナ時間11日22時-12日22時:090度から7ノットの風

ジャンル:
お天気
コメント   この記事についてブログを書く
この記事をはてなブックマークに追加
« 10/10-10/12の航空気象通報 | トップ | 10/12-10/14の航空気象通報 »
最近の画像もっと見る

コメントを投稿

ブログ作成者から承認されるまでコメントは反映されません。

コメント利用規約に同意の上コメント投稿を行ってください。

数字4桁を入力し、投稿ボタンを押してください。

あわせて読む

トラックバック

この記事のトラックバック  Ping-URL
ブログ作成者から承認されるまでトラックバックは反映されません。
  • 30日以上前の記事に対するトラックバックは受け取らないよう設定されております。
  • 送信元の記事内容が半角英数のみのトラックバックは受け取らないよう設定されております。
  • このブログへのリンクがない記事からのトラックバックは受け取らないよう設定されております。
  • ※ブログ管理者のみ、編集画面で設定の変更が可能です。